Time;durP1;ratioP1;P1;durP2;ratioP2;P2;SDS_P1;SDS_P2;PMS_P1;PMS_P2;Temp;Humidity;BMP_temperature;BMP_pressure;BME280_temperature;BME280_humidity;BME280_pressure;Samples;Min_cycle;Max_cycle;Signal;HPM_P1;HPM_P2
2023/09/13 00:01:44;;;;;;;2.53;2.33;;;;;18.70;94106.00;;;;7397075;19;20165;-76
2023/09/13 00:04:20;;;;;;;3.80;2.80;;;;;18.70;94122.00;;;;7396585;19;20146;-74
2023/09/13 00:06:55;;;;;;;3.28;2.80;;;;;18.60;94120.00;;;;7395222;19;20587;-75
2023/09/13 00:09:30;;;;;;;4.35;3.10;;;;;18.30;94129.00;;;;7397317;19;20516;-75
2023/09/13 00:12:04;;;;;;;3.45;2.80;;;;;18.10;94136.00;;;;7397158;19;20152;-76
2023/09/13 00:14:32;;;;;;;7.70;3.00;;;;;17.80;94135.00;;;;7396501;19;20604;-75
2023/09/13 00:17:07;;;;;;;5.88;3.50;;;;;17.40;94131.00;;;;7396115;19;20169;-75
2023/09/13 00:19:37;;;;;;;6.35;3.10;;;;;17.20;94128.00;;;;7396404;19;20137;-74
2023/09/13 00:22:19;;;;;;;4.03;2.90;;;;;17.10;94136.00;;;;7394481;19;20600;-74
2023/09/13 00:24:48;;;;;;;3.60;3.10;;;;;16.90;94123.00;;;;7397664;19;20147;-76
2023/09/13 00:27:25;;;;;;;8.52;3.03;;;;;16.70;94122.00;;;;7395322;19;20616;-75
2023/09/13 00:30:00;;;;;;;4.82;3.72;;;;;16.50;94121.00;;;;7395330;19;20166;-77
2023/09/13 00:32:27;;;;;;;3.97;3.58;;;;;16.40;94122.00;;;;7396049;19;20152;-76
2023/09/13 00:34:56;;;;;;;4.45;3.40;;;;;16.30;94121.00;;;;7398873;19;20485;-75
2023/09/13 00:37:30;;;;;;;4.03;3.63;;;;;16.30;94119.00;;;;7396679;19;20144;-78
2023/09/13 00:40:05;;;;;;;4.05;3.55;;;;;16.30;94118.00;;;;7396579;19;20136;-76
2023/09/13 00:42:40;;;;;;;5.22;3.80;;;;;16.20;94115.00;;;;7395063;19;20136;-75
2023/09/13 00:45:15;;;;;;;6.68;3.70;;;;;16.20;94113.00;;;;7395814;19;20614;-75
2023/09/13 00:47:43;;;;;;;4.30;3.60;;;;;16.20;94105.00;;;;7395527;19;20599;-75
2023/09/13 00:50:18;;;;;;;5.35;4.18;;;;;16.10;94106.00;;;;7395106;19;20174;-75
2023/09/13 00:53:04;;;;;;;5.20;3.85;;;;;16.30;94106.00;;;;7394664;19;20149;-75
2023/09/13 00:55:40;;;;;;;4.22;3.50;;;;;16.30;94107.00;;;;7395991;19;20158;-74
2023/09/13 00:58:15;;;;;;;4.30;3.78;;;;;16.30;94100.00;;;;7391881;19;20129;-76
2023/09/13 01:00:53;;;;;;;4.82;3.38;;;;;16.20;94101.00;;;;7394122;19;20156;-75
2023/09/13 01:03:22;;;;;;;3.85;3.53;;;;;16.20;94105.00;;;;7395402;19;20137;-75
2023/09/13 01:05:58;;;;;;;3.80;3.40;;;;;16.30;94111.00;;;;7388186;19;20227;-76
2023/09/13 01:08:26;;;;;;;4.22;3.83;;;;;16.30;94111.00;;;;7391964;19;20496;-78
2023/09/13 01:11:01;;;;;;;5.53;3.63;;;;;16.30;94111.00;;;;7397829;19;20155;-76
2023/09/13 01:13:29;;;;;;;4.22;3.83;;;;;16.30;94118.00;;;;7395107;19;20599;-76
2023/09/13 01:16:14;;;;;;;5.15;3.83;;;;;16.20;94116.00;;;;7394540;19;20176;-79
2023/09/13 01:19:04;;;;;;;4.60;3.92;;;;;16.30;94128.00;;;;7394916;19;20619;-78
2023/09/13 01:22:23;;;;;;;5.75;3.58;;;;;16.30;94125.00;;;;7394748;19;20149;-75
2023/09/13 01:25:22;;;;;;;4.95;3.78;;;;;16.30;94116.00;;;;7389465;19;20236;-76
2023/09/13 01:28:15;;;;;;;4.20;3.80;;;;;16.40;94115.00;;;;7394251;19;20129;-75
2023/09/13 01:30:51;;;;;;;4.53;3.47;;;;;16.40;94124.00;;;;7394812;19;20133;-78
2023/09/13 01:33:19;;;;;;;4.30;3.60;;;;;16.50;94116.00;;;;7393970;19;20157;-77
2023/09/13 01:35:54;;;;;;;5.93;3.50;;;;;16.50;94115.00;;;;7393719;19;20156;-75
2023/09/13 01:38:29;;;;;;;3.97;3.45;;;;;16.50;94108.00;;;;7394195;19;20513;-77
2023/09/13 01:41:28;;;;;;;5.88;3.83;;;;;16.50;94109.00;;;;7394142;19;20135;-77
2023/09/13 01:43:56;;;;;;;4.10;2.92;;;;;16.50;94104.00;;;;7393356;19;20148;-77
2023/09/13 01:46:39;;;;;;;6.53;3.10;;;;;16.60;94105.00;;;;7394379;19;20448;-75
2023/09/13 01:49:15;;;;;;;5.43;3.50;;;;;16.60;94098.00;;;;7396042;19;20150;-75
2023/09/13 01:51:56;;;;;;;4.07;3.55;;;;;16.60;94100.00;;;;7393592;19;20165;-75
2023/09/13 01:54:24;;;;;;;5.75;3.33;;;;;16.60;94086.00;;;;7392524;19;20188;-79
2023/09/13 01:57:01;;;;;;;3.50;3.20;;;;;16.60;94090.00;;;;7399318;19;20151;-76
2023/09/13 01:59:36;;;;;;;4.03;3.53;;;;;16.70;94081.00;;;;7402425;19;20207;-78
2023/09/13 02:02:04;;;;;;;5.93;3.55;;;;;16.80;94070.00;;;;7398524;19;20198;-78
2023/09/13 02:04:40;;;;;;;5.43;3.80;;;;;16.70;94070.00;;;;7398750;19;20642;-78
2023/09/13 02:07:08;;;;;;;3.88;3.55;;;;;16.70;94077.00;;;;7400753;19;20133;-79
2023/09/13 02:09:44;;;;;;;5.80;3.50;;;;;16.80;94074.00;;;;7400628;19;20184;-77
2023/09/13 02:12:18;;;;;;;6.65;3.45;;;;;16.90;94084.00;;;;7400433;19;20156;-76
2023/09/13 02:14:46;;;;;;;5.00;3.80;;;;;16.90;94073.00;;;;7401400;19;20153;-76
2023/09/13 02:17:20;;;;;;;5.50;3.20;;;;;16.90;94071.00;;;;7400000;19;20148;-77
2023/09/13 02:19:49;;;;;;;4.10;3.30;;;;;17.00;94070.00;;;;7400235;19;20584;-75
2023/09/13 02:22:37;;;;;;;4.40;2.97;;;;;17.00;94072.00;;;;7398642;19;20185;-75
2023/09/13 02:25:06;;;;;;;5.78;3.80;;;;;16.90;94079.00;;;;7398896;19;20160;-75
2023/09/13 02:27:40;;;;;;;3.38;3.08;;;;;17.00;94078.00;;;;7399465;19;20124;-75
2023/09/13 02:30:08;;;;;;;4.35;3.22;;;;;16.90;94071.00;;;;7398914;19;20148;-75
2023/09/13 02:32:43;;;;;;;4.28;3.38;;;;;17.00;94064.00;;;;7395798;19;20144;-75
2023/09/13 02:35:11;;;;;;;5.72;3.40;;;;;17.10;94067.00;;;;7398294;19;20141;-76
2023/09/13 02:37:46;;;;;;;10.15;3.38;;;;;17.10;94084.00;;;;7399649;19;20117;-76
2023/09/13 02:40:14;;;;;;;4.03;3.63;;;;;17.20;94091.00;;;;7398596;19;20236;-73
2023/09/13 02:42:48;;;;;;;4.82;3.33;;;;;17.20;94086.00;;;;7399865;19;20146;-76
2023/09/13 02:45:16;;;;;;;3.88;3.47;;;;;17.10;94088.00;;;;7398909;19;20169;-76
2023/09/13 02:47:51;;;;;;;5.70;3.35;;;;;17.00;94084.00;;;;7399584;19;20136;-74
2023/09/13 02:50:25;;;;;;;4.03;3.63;;;;;17.10;94095.00;;;;7400273;19;20595;-73
2023/09/13 02:52:58;;;;;;;4.68;3.40;;;;;17.00;94089.00;;;;7398058;19;20141;-73
2023/09/13 02:55:33;;;;;;;6.90;3.67;;;;;17.10;94087.00;;;;7399026;19;20140;-74
2023/09/13 02:58:06;;;;;;;6.63;3.72;;;;;17.00;94085.00;;;;7397877;19;20705;-74
2023/09/13 03:00:43;;;;;;;4.80;4.03;;;;;17.10;94089.00;;;;7398074;19;20152;-75
2023/09/13 03:03:17;;;;;;;5.38;3.80;;;;;17.00;94098.00;;;;7398642;19;20141;-76
2023/09/13 03:05:45;;;;;;;6.97;4.25;;;;;17.00;94105.00;;;;7397874;19;20167;-74
2023/09/13 03:08:20;;;;;;;6.30;3.92;;;;;17.00;94113.00;;;;7397890;19;20120;-75
2023/09/13 03:10:47;;;;;;;6.05;3.78;;;;;17.00;94065.00;;;;7397302;19;20145;-75
2023/09/13 03:13:22;;;;;;;5.32;4.45;;;;;16.80;94111.00;;;;7398381;19;20148;-76
2023/09/13 03:15:56;;;;;;;5.28;4.10;;;;;16.80;94103.00;;;;7396137;19;20642;-74
2023/09/13 03:18:31;;;;;;;7.40;4.78;;;;;16.80;94117.00;;;;7397395;19;20129;-76
2023/09/13 03:21:09;;;;;;;8.32;4.50;;;;;16.90;94121.00;;;;7397683;19;20176;-74
2023/09/13 03:23:51;;;;;;;6.50;4.95;;;;;16.90;94106.00;;;;7399793;19;20137;-76
2023/09/13 03:26:27;;;;;;;6.15;5.10;;;;;16.90;94096.00;;;;7398701;19;20158;-75
2023/09/13 03:28:55;;;;;;;7.93;5.03;;;;;16.80;94098.00;;;;7395580;19;20779;-70
2023/09/13 03:31:31;;;;;;;5.63;5.05;;;;;16.80;94103.00;;;;7396995;19;20151;-73
2023/09/13 03:33:59;;;;;;;6.20;5.60;;;;;16.80;94094.00;;;;7397395;19;20229;-71
2023/09/13 03:36:34;;;;;;;7.72;5.03;;;;;17.00;94094.00;;;;7396410;19;20610;-71
2023/09/13 03:39:03;;;;;;;5.78;5.18;;;;;16.90;94103.00;;;;7399573;19;20640;-72
2023/09/13 03:41:38;;;;;;;8.50;4.90;;;;;16.80;94095.00;;;;7398054;19;20671;-71
2023/09/13 03:44:08;;;;;;;6.95;4.65;;;;;16.90;94103.00;;;;7393222;19;20149;-71
2023/09/13 03:46:43;;;;;;;5.78;5.03;;;;;16.80;94101.00;;;;7397939;19;20241;-71
2023/09/13 03:49:11;;;;;;;6.55;5.50;;;;;16.90;94097.00;;;;7396008;19;20140;-72
2023/09/13 03:51:39;;;;;;;7.57;4.95;;;;;16.90;94095.00;;;;7395549;19;20144;-73
2023/09/13 03:54:14;;;;;;;5.65;4.93;;;;;17.00;94106.00;;;;7395972;19;20205;-72
2023/09/13 03:56:42;;;;;;;6.20;5.03;;;;;16.90;94109.00;;;;7392667;19;20145;-72
2023/09/13 03:59:16;;;;;;;7.25;5.53;;;;;17.00;94107.00;;;;7395397;19;20640;-74
2023/09/13 04:01:45;;;;;;;7.55;5.05;;;;;16.90;94109.00;;;;7392514;19;20171;-70
2023/09/13 04:04:19;;;;;;;5.78;5.18;;;;;16.80;94106.00;;;;7396147;19;20176;-70
2023/09/13 04:06:54;;;;;;;6.55;5.75;;;;;16.80;94109.00;;;;7396507;19;20136;-73
2023/09/13 04:09:29;;;;;;;8.75;5.43;;;;;16.70;94114.00;;;;7396925;19;20484;-77
2023/09/13 04:12:03;;;;;;;7.38;5.90;;;;;16.80;94118.00;;;;7396016;19;20588;-71
2023/09/13 04:14:37;;;;;;;6.47;5.72;;;;;16.80;94123.00;;;;7391618;19;20676;-73
2023/09/13 04:17:12;;;;;;;5.97;5.07;;;;;16.80;94120.00;;;;7397808;19;20116;-74
2023/09/13 04:19:40;;;;;;;5.75;5.25;;;;;16.80;94117.00;;;;7393298;19;20208;-73
2023/09/13 04:22:08;;;;;;;6.75;5.95;;;;;16.70;94113.00;;;;7395483;19;20531;-72
2023/09/13 04:24:50;;;;;;;8.52;6.32;;;;;16.70;94106.00;;;;7394799;19;20278;-73
2023/09/13 04:27:22;;;;;;;6.18;5.47;;;;;16.70;94119.00;;;;7391520;19;20607;-71
2023/09/13 04:29:57;;;;;;;6.85;6.07;;;;;16.80;94114.00;;;;7394671;19;20665;-73
2023/09/13 04:32:34;;;;;;;7.10;6.22;;;;;16.70;94123.00;;;;7395339;19;20140;-72
2023/09/13 04:35:08;;;;;;;8.88;6.20;;;;;16.70;94123.00;;;;7395776;19;20208;-72
2023/09/13 04:37:44;;;;;;;7.63;5.93;;;;;16.70;94124.00;;;;7393289;19;20531;-74
2023/09/13 04:40:21;;;;;;;5.68;5.00;;;;;16.60;94135.00;;;;7396857;19;20152;-75
2023/09/13 04:43:16;;;;;;;7.80;5.75;;;;;16.60;94135.00;;;;7395688;19;20615;-77
2023/09/13 04:45:51;;;;;;;7.13;6.25;;;;;16.60;94133.00;;;;7392906;19;20596;-76
2023/09/13 04:48:26;;;;;;;7.80;5.63;;;;;16.60;94141.00;;;;7391820;19;20124;-77
2023/09/13 04:51:00;;;;;;;7.20;6.43;;;;;16.50;94141.00;;;;7395966;19;20149;-76
2023/09/13 04:53:35;;;;;;;9.30;5.90;;;;;16.50;94147.00;;;;7393274;19;20147;-75
2023/09/13 04:56:09;;;;;;;7.90;6.47;;;;;16.50;94149.00;;;;7395087;19;20151;-77
2023/09/13 04:58:37;;;;;;;8.15;5.93;;;;;16.40;94152.00;;;;7392616;19;20136;-73
2023/09/13 05:01:11;;;;;;;6.57;5.60;;;;;16.50;94159.00;;;;7395198;19;20144;-76
2023/09/13 05:03:47;;;;;;;7.15;5.60;;;;;16.40;94151.00;;;;7383647;19;20151;-76
2023/09/13 05:06:15;;;;;;;7.25;5.40;;;;;16.40;94158.00;;;;7381154;19;20152;-76
2023/09/13 05:08:52;;;;;;;7.28;5.60;;;;;16.40;94155.00;;;;7381793;19;20619;-75
2023/09/13 05:11:20;;;;;;;5.97;5.38;;;;;16.40;94136.00;;;;7380669;19;20140;-75
2023/09/13 05:14:14;;;;;;;8.07;5.28;;;;;16.50;94138.00;;;;7382063;19;20584;-76
2023/09/13 05:16:54;;;;;;;6.75;5.25;;;;;16.40;94138.00;;;;7383765;19;20159;-73
2023/09/13 05:19:22;;;;;;;8.13;5.22;;;;;16.40;94145.00;;;;7382306;19;20206;-74
2023/09/13 05:22:10;;;;;;;5.75;5.15;;;;;16.50;94149.00;;;;7385060;19;20183;-73
2023/09/13 05:24:45;;;;;;;5.68;4.68;;;;;16.50;94153.00;;;;7382742;19;20132;-74
2023/09/13 05:27:20;;;;;;;5.82;5.22;;;;;16.50;94154.00;;;;7382330;19;20145;-76
2023/09/13 05:29:55;;;;;;;6.63;4.90;;;;;16.50;94155.00;;;;7380543;19;20158;-76
2023/09/13 05:32:30;;;;;;;5.50;5.00;;;;;16.50;94159.00;;;;7388392;19;20128;-75
2023/09/13 05:35:04;;;;;;;5.75;4.88;;;;;16.50;94147.00;;;;7389539;19;20128;-75
2023/09/13 05:37:39;;;;;;;6.30;4.70;;;;;16.60;94143.00;;;;7387945;19;20132;-74
2023/09/13 05:40:07;;;;;;;5.53;4.90;;;;;16.60;94153.00;;;;7387036;19;20148;-76
2023/09/13 05:42:42;;;;;;;4.95;4.45;;;;;16.60;94162.00;;;;7390181;19;20129;-76
2023/09/13 05:45:18;;;;;;;7.97;4.60;;;;;16.70;94164.00;;;;7388235;19;20448;-76
2023/09/13 05:47:53;;;;;;;6.63;4.82;;;;;16.60;94176.00;;;;7384932;19;20599;-75
2023/09/13 05:50:21;;;;;;;6.07;4.75;;;;;16.80;94167.00;;;;7387425;19;20131;-76
2023/09/13 05:52:50;;;;;;;9.18;5.15;;;;;16.70;94165.00;;;;7388458;19;20121;-76
2023/09/13 05:55:25;;;;;;;4.93;4.40;;;;;16.80;94180.00;;;;7386260;19;20154;-76
2023/09/13 05:57:56;;;;;;;6.10;4.47;;;;;16.70;94179.00;;;;7383376;19;20193;-75
2023/09/13 06:00:31;;;;;;;6.07;4.15;;;;;16.80;94193.00;;;;7389189;19;20471;-75
2023/09/13 06:02:58;;;;;;;5.22;4.45;;;;;16.80;94194.00;;;;7383432;19;20659;-74
2023/09/13 06:05:34;;;;;;;8.00;5.03;;;;;16.90;94198.00;;;;7384855;19;20140;-75
2023/09/13 06:08:02;;;;;;;6.00;4.60;;;;;16.80;94196.00;;;;7386208;19;20152;-74
2023/09/13 06:10:37;;;;;;;6.28;4.25;;;;;16.80;94195.00;;;;7386637;19;20125;-74
2023/09/13 06:13:04;;;;;;;7.45;4.15;;;;;16.90;94194.00;;;;7385252;19;20144;-75
2023/09/13 06:15:39;;;;;;;4.88;3.80;;;;;16.90;94199.00;;;;7388434;19;20599;-76
2023/09/13 06:18:07;;;;;;;4.47;4.07;;;;;16.80;94206.00;;;;7383684;19;20591;-76
2023/09/13 06:20:41;;;;;;;5.13;4.13;;;;;17.00;94212.00;;;;7384433;19;20148;-75
2023/09/13 06:23:39;;;;;;;5.05;4.18;;;;;17.00;94220.00;;;;7387471;19;20156;-75
2023/09/13 06:26:14;;;;;;;5.20;4.00;;;;;16.90;94222.00;;;;7382776;19;20468;-77
2023/09/13 06:28:42;;;;;;;4.30;3.90;;;;;16.90;94234.00;;;;7384364;19;20453;-74
2023/09/13 06:31:19;;;;;;;5.03;4.30;;;;;16.90;94233.00;;;;7382035;19;20137;-75
2023/09/13 06:34:03;;;;;;;6.95;4.80;;;;;16.90;94227.00;;;;7381214;19;20135;-76
2023/09/13 06:36:51;;;;;;;7.82;4.05;;;;;16.90;94236.00;;;;7385152;19;20168;-76
2023/09/13 06:39:20;;;;;;;6.25;4.65;;;;;16.80;94226.00;;;;7384863;19;20592;-75
2023/09/13 06:41:55;;;;;;;5.60;4.20;;;;;16.80;94223.00;;;;7382990;19;20171;-75
2023/09/13 06:44:51;;;;;;;5.15;4.22;;;;;16.90;94221.00;;;;7383117;19;20137;-76
2023/09/13 06:47:45;;;;;;;4.85;4.20;;;;;17.10;94231.00;;;;7379399;19;20152;-74
2023/09/13 06:50:20;;;;;;;8.93;4.43;;;;;17.00;94234.00;;;;7378729;19;20169;-73
2023/09/13 06:52:59;;;;;;;5.50;4.50;;;;;16.90;94237.00;;;;7382314;19;20132;-75
2023/09/13 06:55:54;;;;;;;4.78;4.28;;;;;16.90;94245.00;;;;7382303;19;20233;-75
2023/09/13 06:58:35;;;;;;;5.18;3.90;;;;;16.90;94239.00;;;;7379087;19;20148;-74
2023/09/13 07:01:05;;;;;;;4.40;4.00;;;;;16.90;94247.00;;;;7382045;19;20153;-76
2023/09/13 07:03:42;;;;;;;4.60;4.15;;;;;17.10;94237.00;;;;7382246;19;21055;-76
2023/09/13 07:06:26;;;;;;;5.15;4.40;;;;;16.90;94246.00;;;;7382696;19;20679;-75
2023/09/13 07:09:02;;;;;;;5.30;4.35;;;;;17.10;94242.00;;;;7383297;19;20692;-77
2023/09/13 07:11:39;;;;;;;5.10;4.15;;;;;17.10;94237.00;;;;7383549;19;20584;-76
2023/09/13 07:14:13;;;;;;;6.97;4.28;;;;;17.20;94245.00;;;;7380999;19;20152;-75
2023/09/13 07:16:41;;;;;;;5.35;4.30;;;;;17.30;94236.00;;;;7383112;19;20148;-74
2023/09/13 07:19:16;;;;;;;5.85;3.83;;;;;17.20;94247.00;;;;7382971;19;20133;-77
2023/09/13 07:21:52;;;;;;;4.80;4.13;;;;;17.30;94249.00;;;;7380004;19;20643;-73
2023/09/13 07:24:33;;;;;;;4.53;4.00;;;;;17.20;94252.00;;;;7379257;19;20151;-77
2023/09/13 07:27:09;;;;;;;5.80;4.00;;;;;17.10;94244.00;;;;7376285;19;20145;-76
2023/09/13 07:29:43;;;;;;;4.68;4.00;;;;;17.10;94244.00;;;;7383422;19;20146;-73
2023/09/13 07:32:18;;;;;;;4.68;4.22;;;;;17.40;94245.00;;;;7382895;19;20132;-75
2023/09/13 07:34:53;;;;;;;4.78;3.83;;;;;17.40;94249.00;;;;7384117;19;20495;-77
2023/09/13 07:37:21;;;;;;;4.53;4.10;;;;;17.50;94250.00;;;;7383317;19;20149;-76
2023/09/13 07:39:57;;;;;;;5.53;4.00;;;;;17.60;94252.00;;;;7379905;19;20148;-75
2023/09/13 07:42:25;;;;;;;3.70;3.25;;;;;17.50;94261.00;;;;7382913;19;20591;-75
2023/09/13 07:45:00;;;;;;;4.43;3.90;;;;;17.50;94255.00;;;;7382326;19;20144;-75
2023/09/13 07:47:28;;;;;;;4.40;4.00;;;;;17.50;94267.00;;;;7382359;19;20169;-76
2023/09/13 07:50:00;;;;;;;3.42;3.13;;;;;17.60;94272.00;;;;7383291;19;20472;-74
2023/09/13 07:52:36;;;;;;;4.32;3.67;;;;;17.40;94272.00;;;;7379294;19;21180;-74
2023/09/13 07:55:15;;;;;;;5.68;3.70;;;;;17.50;94273.00;;;;7376382;19;20156;-76
2023/09/13 07:57:49;;;;;;;4.63;3.80;;;;;17.30;94279.00;;;;7375337;19;20144;-75
2023/09/13 08:00:17;;;;;;;3.65;3.17;;;;;17.30;94272.00;;;;7382854;19;20627;-75
2023/09/13 08:02:52;;;;;;;4.97;3.55;;;;;17.50;94281.00;;;;7384343;19;20184;-74
2023/09/13 08:05:28;;;;;;;4.07;3.67;;;;;17.60;94285.00;;;;7382331;19;20132;-76
2023/09/13 08:07:56;;;;;;;6.03;3.90;;;;;17.50;94282.00;;;;7383562;19;21704;-74
2023/09/13 08:10:31;;;;;;;6.07;3.65;;;;;17.30;94286.00;;;;7383453;19;20149;-73
2023/09/13 08:13:05;;;;;;;4.50;3.95;;;;;17.40;94281.00;;;;7379697;19;20625;-72
2023/09/13 08:15:33;;;;;;;3.88;3.50;;;;;17.50;94279.00;;;;7382076;19;23161;-76
2023/09/13 08:18:17;;;;;;;4.43;3.95;;;;;17.40;94295.00;;;;7381546;19;20149;-72
2023/09/13 08:20:46;;;;;;;3.88;3.47;;;;;17.40;94295.00;;;;7381733;19;20166;-73
2023/09/13 08:23:27;;;;;;;6.20;4.32;;;;;17.50;94291.00;;;;7382162;19;20180;-73
2023/09/13 08:26:08;;;;;;;4.32;3.75;;;;;17.70;94298.00;;;;7383274;19;20165;-72
2023/09/13 08:28:55;;;;;;;4.43;3.67;;;;;17.80;94294.00;;;;7380067;19;20155;-72
2023/09/13 08:31:25;;;;;;;4.00;3.50;;;;;17.90;94295.00;;;;7380619;19;20648;-73
2023/09/13 08:34:01;;;;;;;3.90;3.50;;;;;18.10;94296.00;;;;7381961;19;20522;-73
2023/09/13 08:36:28;;;;;;;4.18;3.63;;;;;18.10;94294.00;;;;7382559;19;20212;-74
2023/09/13 08:39:05;;;;;;;6.28;3.60;;;;;18.20;94303.00;;;;7379633;19;20478;-71
2023/09/13 08:41:40;;;;;;;4.53;3.72;;;;;18.00;94308.00;;;;7383665;19;20124;-74
2023/09/13 08:44:18;;;;;;;6.20;3.83;;;;;18.10;94310.00;;;;7382160;19;20140;-73
2023/09/13 08:46:47;;;;;;;4.07;3.40;;;;;18.10;94307.00;;;;7379009;19;20153;-74
2023/09/13 08:49:22;;;;;;;5.38;3.90;;;;;18.00;94313.00;;;;7382204;19;20124;-77
2023/09/13 08:51:52;;;;;;;4.38;3.78;;;;;18.00;94309.00;;;;7381746;19;20140;-72
2023/09/13 08:54:27;;;;;;;4.07;3.67;;;;;17.70;94323.00;;;;7380326;19;20144;-73
2023/09/13 08:57:24;;;;;;;6.72;4.05;;;;;17.50;94320.00;;;;7376992;19;20182;-73
2023/09/13 08:59:58;;;;;;;4.38;3.78;;;;;17.50;94320.00;;;;7381388;19;20151;-72
2023/09/13 09:02:34;;;;;;;4.75;3.70;;;;;17.40;94323.00;;;;7379195;19;20654;-75
2023/09/13 09:05:12;;;;;;;4.13;3.30;;;;;17.30;94324.00;;;;7380297;19;20168;-73
2023/09/13 09:07:43;;;;;;;5.13;4.07;;;;;17.40;94325.00;;;;7381326;19;20180;-74
2023/09/13 09:10:19;;;;;;;4.80;3.92;;;;;17.90;94321.00;;;;7378575;19;20579;-73
2023/09/13 09:12:59;;;;;;;4.90;4.00;;;;;18.30;94311.00;;;;7379180;19;20129;-74
2023/09/13 09:15:35;;;;;;;4.40;3.70;;;;;18.90;94318.00;;;;7379063;19;20172;-73
2023/09/13 09:18:11;;;;;;;4.28;3.30;;;;;19.10;94317.00;;;;7372054;19;20137;-75
2023/09/13 09:20:47;;;;;;;3.35;3.00;;;;;18.90;94321.00;;;;7375176;19;20241;-72
2023/09/13 09:23:38;;;;;;;3.40;3.05;;;;;19.40;94315.00;;;;7373271;19;20184;-73
2023/09/13 09:26:12;;;;;;;3.45;2.78;;;;;19.60;94326.00;;;;7373320;19;20171;-75
2023/09/13 09:28:48;;;;;;;3.88;3.28;;;;;19.50;94323.00;;;;7373568;19;20158;-74
2023/09/13 09:31:27;;;;;;;3.08;2.55;;;;;19.40;94331.00;;;;7375541;19;20194;-72
2023/09/13 09:34:03;;;;;;;5.13;2.50;;;;;19.30;94337.00;;;;7372724;19;20152;-75
2023/09/13 09:36:38;;;;;;;6.03;3.13;;;;;19.20;94345.00;;;;7374240;19;20148;-72
2023/09/13 09:39:13;;;;;;;3.63;2.65;;;;;19.20;94341.00;;;;7376814;19;20675;-74
2023/09/13 09:41:48;;;;;;;3.30;3.00;;;;;19.10;94337.00;;;;7373507;19;20624;-73
2023/09/13 09:44:28;;;;;;;4.82;3.03;;;;;19.20;94333.00;;;;7374394;19;20595;-73
2023/09/13 09:46:58;;;;;;;2.92;2.63;;;;;19.40;94333.00;;;;7372478;19;20215;-72
2023/09/13 09:49:35;;;;;;;3.92;3.03;;;;;19.40;94325.00;;;;7372288;19;20614;-73
2023/09/13 09:52:11;;;;;;;3.08;2.78;;;;;19.90;94333.00;;;;7370909;19;20152;-73
2023/09/13 09:54:50;;;;;;;4.80;2.70;;;;;19.60;94336.00;;;;7374901;19;20604;-72
2023/09/13 09:57:22;;;;;;;4.03;2.63;;;;;19.50;94338.00;;;;7369340;19;20616;-73
2023/09/13 10:00:07;;;;;;;3.45;2.92;;;;;19.60;94329.00;;;;7373471;19;20136;-73
2023/09/13 10:02:44;;;;;;;3.47;3.10;;;;;19.90;94325.00;;;;7376658;19;20176;-71
2023/09/13 10:05:21;;;;;;;3.10;2.78;;;;;20.20;94325.00;;;;7378115;19;20862;-71
2023/09/13 10:07:51;;;;;;;3.22;2.92;;;;;20.40;94338.00;;;;7381909;19;20129;-72
2023/09/13 10:10:30;;;;;;;3.20;2.90;;;;;20.10;94334.00;;;;7376959;19;20144;-72
2023/09/13 10:12:58;;;;;;;4.07;2.78;;;;;19.80;94335.00;;;;7379005;19;20599;-73
2023/09/13 10:15:32;;;;;;;3.42;2.63;;;;;20.00;94334.00;;;;7380978;19;20144;-73
2023/09/13 10:18:03;;;;;;;2.97;2.65;;;;;20.10;94340.00;;;;7385166;19;20169;-73
2023/09/13 10:20:34;;;;;;;2.90;2.70;;;;;20.10;94344.00;;;;7382694;19;20149;-72
2023/09/13 10:23:23;;;;;;;2.60;2.40;;;;;20.00;94336.00;;;;7385960;19;20187;-72
2023/09/13 10:26:01;;;;;;;5.05;2.95;;;;;20.10;94335.00;;;;7386429;19;20155;-75
2023/09/13 10:28:39;;;;;;;3.88;2.78;;;;;20.20;94336.00;;;;7383249;19;20520;-75
2023/09/13 10:31:17;;;;;;;2.72;2.30;;;;;20.40;94334.00;;;;7385003;19;20659;-75
2023/09/13 10:33:58;;;;;;;4.00;2.60;;;;;20.80;94334.00;;;;7383654;19;20140;-75
2023/09/13 10:36:38;;;;;;;3.20;2.65;;;;;21.00;94324.00;;;;7384288;19;20132;-75
2023/09/13 10:39:33;;;;;;;6.10;2.83;;;;;20.90;94319.00;;;;7383388;19;20492;-75
2023/09/13 10:42:10;;;;;;;2.95;2.50;;;;;21.10;94334.00;;;;7384676;19;20168;-76
2023/09/13 10:44:39;;;;;;;2.58;2.38;;;;;21.50;94314.00;;;;7384383;19;20144;-75
2023/09/13 10:47:14;;;;;;;2.40;2.20;;;;;21.60;94323.00;;;;7388007;19;20200;-75
2023/09/13 10:49:42;;;;;;;2.80;2.47;;;;;21.80;94314.00;;;;7383742;19;20934;-76
2023/09/13 10:52:17;;;;;;;3.20;2.50;;;;;22.30;94319.00;;;;7385931;19;20159;-75
2023/09/13 10:54:47;;;;;;;3.80;2.30;;;;;22.20;94325.00;;;;7385948;19;20133;-75
2023/09/13 10:57:23;;;;;;;2.35;2.10;;;;;21.70;94320.00;;;;7382821;19;20136;-76
2023/09/13 11:00:08;;;;;;;2.28;2.08;;;;;21.80;94326.00;;;;7380719;19;20763;-76
2023/09/13 11:02:45;;;;;;;2.30;2.08;;;;;21.40;94333.00;;;;7383918;19;20228;-75
2023/09/13 11:05:15;;;;;;;3.08;2.70;;;;;20.90;94339.00;;;;7385944;19;20149;-75
2023/09/13 11:07:50;;;;;;;2.40;2.10;;;;;20.80;94334.00;;;;7382309;19;20168;-76
2023/09/13 11:10:20;;;;;;;2.95;2.40;;;;;20.80;94327.00;;;;7384043;19;20268;-76
2023/09/13 11:12:55;;;;;;;3.53;2.40;;;;;21.00;94325.00;;;;7380788;19;20507;-75
2023/09/13 11:15:30;;;;;;;2.30;2.10;;;;;21.30;94337.00;;;;7380569;19;20143;-76
2023/09/13 11:18:14;;;;;;;3.58;2.25;;;;;21.10;94339.00;;;;7384578;19;20525;-74
2023/09/13 11:20:48;;;;;;;3.53;2.38;;;;;21.20;94341.00;;;;7385381;19;20185;-75
2023/09/13 11:23:22;;;;;;;3.05;2.45;;;;;21.00;94333.00;;;;7382494;19;20157;-77
2023/09/13 11:26:13;;;;;;;2.97;2.58;;;;;21.10;94340.00;;;;7383559;19;20156;-77
2023/09/13 11:28:57;;;;;;;3.22;2.75;;;;;21.00;94343.00;;;;7383905;19;20136;-76
2023/09/13 11:31:32;;;;;;;2.75;2.50;;;;;20.70;94345.00;;;;7383171;19;20152;-75
2023/09/13 11:34:13;;;;;;;5.40;2.80;;;;;20.90;94345.00;;;;7384474;19;20148;-74
2023/09/13 11:36:56;;;;;;;2.42;2.22;;;;;21.30;94348.00;;;;7382732;19;20149;-75
2023/09/13 11:39:32;;;;;;;2.88;2.63;;;;;21.40;94352.00;;;;7384491;19;20799;-75
2023/09/13 11:41:59;;;;;;;5.53;2.53;;;;;21.00;94345.00;;;;7384035;19;20145;-77
2023/09/13 11:44:35;;;;;;;2.92;2.45;;;;;21.60;94350.00;;;;7386637;19;20139;-76
2023/09/13 11:47:26;;;;;;;3.67;2.60;;;;;21.50;94351.00;;;;7384517;19;20626;-76
2023/09/13 11:50:01;;;;;;;4.25;2.78;;;;;21.60;94340.00;;;;7384240;19;20137;-78
2023/09/13 11:53:06;;;;;;;2.92;2.45;;;;;21.50;94340.00;;;;7384112;19;20293;-77
2023/09/13 11:55:45;;;;;;;2.83;2.50;;;;;21.30;94340.00;;;;7385856;19;20567;-78
2023/09/13 11:58:39;;;;;;;3.25;2.20;;;;;21.80;94347.00;;;;7383070;19;20666;-75
2023/09/13 12:01:25;;;;;;;2.70;2.50;;;;;22.00;94348.00;;;;7383551;19;20180;-77
2023/09/13 12:04:07;;;;;;;4.00;2.67;;;;;21.90;94356.00;;;;7383375;19;20140;-76
2023/09/13 12:07:08;;;;;;;3.63;2.63;;;;;22.30;94347.00;;;;7383398;19;20490;-76
2023/09/13 12:09:38;;;;;;;3.70;2.38;;;;;21.60;94346.00;;;;7382080;19;20152;-76
2023/09/13 12:12:16;;;;;;;3.40;2.40;;;;;21.50;94354.00;;;;7384009;19;20884;-74
2023/09/13 12:15:15;;;;;;;3.55;2.63;;;;;21.40;94352.00;;;;7384074;19;20548;-76
2023/09/13 12:17:59;;;;;;;2.67;2.30;;;;;21.20;94343.00;;;;7384001;19;20213;-76
2023/09/13 12:20:33;;;;;;;3.92;2.30;;;;;21.30;94336.00;;;;7383061;19;20162;-77
2023/09/13 12:23:08;;;;;;;2.35;2.20;;;;;22.00;94334.00;;;;7379797;19;20159;-75
2023/09/13 12:25:43;;;;;;;3.67;2.50;;;;;22.80;94328.00;;;;7383927;19;20152;-77
2023/09/13 12:28:11;;;;;;;3.13;2.60;;;;;23.10;94335.00;;;;7384403;19;20211;-76
2023/09/13 12:30:45;;;;;;;3.17;2.63;;;;;23.60;94327.00;;;;7384073;19;20587;-78
2023/09/13 12:33:19;;;;;;;3.03;2.25;;;;;23.30;94323.00;;;;7383712;19;20159;-74
2023/09/13 12:35:55;;;;;;;3.33;2.40;;;;;23.70;94306.00;;;;7383366;19;20129;-77
2023/09/13 12:38:46;;;;;;;3.22;2.03;;;;;25.60;94294.00;;;;7383017;19;20465;-76
2023/09/13 12:41:27;;;;;;;3.00;2.38;;;;;26.90;94292.00;;;;7383100;19;20615;-77
2023/09/13 12:44:01;;;;;;;2.50;2.30;;;;;26.20;94303.00;;;;7381916;19;20152;-77
2023/09/13 12:46:29;;;;;;;2.25;2.05;;;;;26.90;94293.00;;;;7382931;19;20223;-75
2023/09/13 12:49:02;;;;;;;2.75;1.98;;;;;27.40;94307.00;;;;7382018;19;20513;-76
2023/09/13 12:51:40;;;;;;;2.97;1.83;;;;;24.50;94332.00;;;;7382846;19;20133;-74
2023/09/13 12:54:12;;;;;;;2.28;2.05;;;;;23.40;94339.00;;;;7383610;19;20145;-73
2023/09/13 12:56:46;;;;;;;2.50;2.30;;;;;22.60;94347.00;;;;7381623;19;20581;-75
2023/09/13 12:59:21;;;;;;;2.53;2.33;;;;;22.50;94346.00;;;;7381357;19;20145;-73
2023/09/13 13:01:56;;;;;;;3.55;2.20;;;;;22.90;94337.00;;;;7382685;19;20177;-73